createdAt,value
2022-09-23T00:01:55.758Z,101219.91
2022-09-23T00:05:19.030Z,101216.47
2022-09-23T00:08:42.387Z,101200.91
2022-09-23T00:12:08.665Z,101215.53
2022-09-23T00:15:31.594Z,101207.66
2022-09-23T00:18:53.689Z,101213.81
2022-09-23T00:22:17.396Z,101212.13
2022-09-23T00:25:39.452Z,101208.63
2022-09-23T00:29:01.252Z,101209.53
2022-09-23T00:32:23.164Z,101208.69
2022-09-23T00:35:45.295Z,101195.88
2022-09-23T00:39:09.864Z,101203.56
2022-09-23T00:42:31.753Z,101199.25
2022-09-23T00:45:55.115Z,101201.00
2022-09-23T00:49:30.249Z,101202.81
2022-09-23T00:52:56.937Z,101194.28
2022-09-23T00:56:22.651Z,101189.16
2022-09-23T00:59:45.748Z,101197.75
2022-09-23T01:03:09.684Z,101188.25
2022-09-23T01:06:31.921Z,101185.59
2022-09-23T01:09:53.441Z,101178.72
2022-09-23T01:13:25.310Z,101188.16
2022-09-23T01:16:55.320Z,101180.41
2022-09-23T01:20:43.889Z,101172.72
2022-09-23T01:24:36.501Z,101178.72
2022-09-23T01:28:19.145Z,101172.75
2022-09-23T01:31:47.728Z,101168.44
2022-09-23T01:35:17.264Z,101167.59
2022-09-23T01:38:46.336Z,101157.28
2022-09-23T01:42:18.290Z,101165.88
2022-09-23T01:45:46.196Z,101169.28
2022-09-23T01:49:17.716Z,101175.41
2022-09-23T01:52:44.901Z,101172.84
2022-09-23T01:56:12.052Z,101172.72
2022-09-23T01:59:39.601Z,101177.88
2022-09-23T02:03:05.879Z,101165.84
2022-09-23T02:06:33.348Z,101173.47
2022-09-23T02:10:03.507Z,101170.88
2022-09-23T02:13:32.802Z,101169.91
2022-09-23T02:16:58.420Z,101169.00
2022-09-23T02:20:25.930Z,101166.41
2022-09-23T02:23:52.270Z,101166.47
2022-09-23T02:27:21.437Z,101168.22
2022-09-23T02:30:51.025Z,101164.81
2022-09-23T02:34:22.197Z,101163.03
2022-09-23T02:37:50.340Z,101164.75
2022-09-23T02:41:19.249Z,101157.97
2022-09-23T02:44:41.402Z,101163.09
2022-09-23T02:48:08.067Z,101162.19
2022-09-23T02:51:30.289Z,101144.19
2022-09-23T02:54:52.628Z,101161.31
2022-09-23T02:58:15.940Z,101160.47
2022-09-23T03:01:47.968Z,101154.44
2022-09-23T03:05:24.000Z,101166.47
2022-09-23T03:08:50.656Z,101157.94
2022-09-23T03:12:18.629Z,101160.47
2022-09-23T03:15:52.620Z,101154.44
2022-09-23T03:19:26.409Z,101149.25
2022-09-23T03:22:53.017Z,101153.66
2022-09-23T03:26:21.145Z,101156.22
2022-09-23T03:29:47.571Z,101151.13
2022-09-23T03:33:14.702Z,101140.06
2022-09-23T03:36:53.877Z,101144.31
2022-09-23T03:40:19.640Z,101153.06
2022-09-23T03:43:41.876Z,101149.63
2022-09-23T03:47:04.581Z,101146.22
2022-09-23T03:50:29.047Z,101149.75
2022-09-23T03:53:51.671Z,101155.81
2022-09-23T03:57:14.193Z,101147.19
2022-09-23T04:00:43.484Z,101146.44
2022-09-23T04:04:07.887Z,101143.06
2022-09-23T04:07:32.121Z,101149.97
2022-09-23T04:10:55.294Z,101150.06
2022-09-23T04:14:18.764Z,101144.19
2022-09-23T04:17:42.641Z,101139.94
2022-09-23T04:21:05.707Z,101131.44
2022-09-23T04:24:30.510Z,101148.59
2022-09-23T04:27:53.364Z,101150.38
2022-09-23T04:31:16.178Z,101157.31
2022-09-23T04:34:40.108Z,101156.53
2022-09-23T04:38:02.970Z,101154.09
2022-09-23T04:41:27.150Z,101158.41
2022-09-23T04:44:49.907Z,101152.38
2022-09-23T04:48:14.199Z,101148.16
2022-09-23T04:51:37.362Z,101157.69
2022-09-23T04:55:00.529Z,101153.34
2022-09-23T04:58:25.845Z,101156.78
2022-09-23T05:01:48.915Z,101154.97
2022-09-23T05:05:12.009Z,101151.41
2022-09-23T05:08:34.521Z,101150.44
2022-09-23T05:11:56.968Z,101149.50
2022-09-23T05:15:21.671Z,101150.28
2022-09-23T05:18:45.749Z,101148.44
2022-09-23T05:22:08.513Z,101147.41
2022-09-23T05:25:34.046Z,101148.16
2022-09-23T05:28:59.814Z,101137.66
2022-09-23T05:32:24.866Z,101145.38
2022-09-23T05:35:49.670Z,101143.44
2022-09-23T05:39:12.422Z,101147.63
2022-09-23T05:42:35.595Z,101148.34
2022-09-23T05:46:07.999Z,101154.25
2022-09-23T05:49:55.222Z,101142.06
2022-09-23T05:53:18.778Z,101159.94
2022-09-23T05:56:42.653Z,101151.16
2022-09-23T06:00:06.835Z,101150.00
2022-09-23T06:03:29.387Z,101149.84
2022-09-23T06:06:54.199Z,101158.41
2022-09-23T06:10:17.156Z,101162.56
2022-09-23T06:13:40.835Z,101164.03
2022-09-23T06:17:03.484Z,101167.19
2022-09-23T06:20:26.131Z,101163.56
2022-09-23T06:23:53.959Z,101169.50
2022-09-23T06:27:19.029Z,101165.75
2022-09-23T06:30:42.906Z,101164.59
2022-09-23T06:34:11.655Z,101162.56
2022-09-23T06:37:36.004Z,101150.19
2022-09-23T06:41:00.795Z,101156.00
2022-09-23T06:44:23.755Z,101160.06
2022-09-23T06:47:50.394Z,101161.63
2022-09-23T06:51:19.703Z,101158.69
2022-09-23T06:54:42.916Z,101164.31
2022-09-23T06:58:07.672Z,101140.81
2022-09-23T07:01:30.648Z,101166.13
2022-09-23T07:04:53.799Z,101161.41
2022-09-23T07:08:16.971Z,101161.00
2022-09-23T07:11:40.226Z,101167.56
2022-09-23T07:15:04.323Z,101160.28
2022-09-23T07:18:30.994Z,101159.16
2022-09-23T07:21:55.865Z,101161.63
2022-09-23T07:25:18.826Z,101164.78
2022-09-23T07:28:42.195Z,101163.50
2022-09-23T07:32:13.567Z,101159.72
2022-09-23T07:35:42.456Z,101149.13
2022-09-23T07:39:05.826Z,101158.16
2022-09-23T07:42:28.985Z,101153.50
2022-09-23T07:45:52.840Z,101152.41
2022-09-23T07:49:17.779Z,101153.03
2022-09-23T07:52:41.867Z,101148.56
2022-09-23T07:56:07.520Z,101151.16
2022-09-23T07:59:30.238Z,101149.59
2022-09-23T08:02:53.528Z,101154.41
2022-09-23T08:06:18.208Z,101156.56
2022-09-23T08:09:43.051Z,101152.47
2022-09-23T08:13:05.760Z,101145.13
2022-09-23T08:16:29.126Z,101149.91
2022-09-23T08:19:52.201Z,101142.94
2022-09-23T08:23:17.921Z,101149.03
2022-09-23T08:26:40.877Z,101156.66
2022-09-23T08:30:03.641Z,101156.06
2022-09-23T08:33:28.230Z,101168.56
2022-09-23T08:36:52.837Z,101161.84
2022-09-23T08:40:25.080Z,101152.59
2022-09-23T08:43:51.447Z,101159.00
2022-09-23T08:47:20.250Z,101153.44
2022-09-23T08:50:44.226Z,101163.16
2022-09-23T08:54:08.630Z,101158.38
2022-09-23T08:57:43.255Z,101154.72
2022-09-23T09:01:15.271Z,101155.47
2022-09-23T09:04:44.849Z,101146.53
2022-09-23T09:08:08.420Z,101143.69
2022-09-23T09:11:37.930Z,101137.06
2022-09-23T09:15:06.624Z,101134.06
2022-09-23T09:18:35.360Z,101132.03
2022-09-23T09:21:58.487Z,101129.06
2022-09-23T09:25:30.858Z,101128.25
2022-09-23T09:29:23.890Z,101128.06
2022-09-23T09:32:51.198Z,101128.31
2022-09-23T09:36:32.277Z,101123.25
2022-09-23T09:39:56.677Z,101123.63
2022-09-23T09:43:23.929Z,101118.25
2022-09-23T09:47:16.896Z,101126.69
2022-09-23T09:50:47.744Z,101120.25
2022-09-23T09:54:28.021Z,101120.72
2022-09-23T09:57:55.833Z,101110.63
2022-09-23T10:01:26.037Z,101107.06
2022-09-23T10:04:58.739Z,101105.09
2022-09-23T10:08:29.687Z,101106.09
2022-09-23T10:12:13.431Z,101104.16
2022-09-23T10:15:50.630Z,101100.88
2022-09-23T10:19:26.027Z,101098.53
2022-09-23T10:22:48.939Z,101097.78
2022-09-23T10:26:14.356Z,101095.91
2022-09-23T10:29:41.026Z,101088.56
2022-09-23T10:33:03.960Z,101080.53
2022-09-23T10:36:27.451Z,101081.41
2022-09-23T10:40:08.254Z,101066.84
2022-09-23T10:43:56.882Z,101079.84
2022-09-23T10:47:36.232Z,101072.06
2022-09-23T10:51:00.206Z,101068.84
2022-09-23T10:54:31.771Z,101065.06
2022-09-23T10:58:11.224Z,101064.84
2022-09-23T11:01:42.549Z,101070.53
2022-09-23T11:05:34.006Z,101070.22
2022-09-23T11:09:11.518Z,101069.78
2022-09-23T11:12:46.061Z,101069.25
2022-09-23T11:16:20.825Z,101075.69
2022-09-23T11:20:11.504Z,101063.91
2022-09-23T11:24:01.727Z,101067.38
2022-09-23T11:27:36.750Z,101070.63
2022-09-23T11:31:10.533Z,101065.38
2022-09-23T11:34:55.098Z,101069.16
2022-09-23T11:38:26.373Z,101060.22
2022-09-23T11:41:51.181Z,101066.16
2022-09-23T11:45:22.029Z,101060.75
2022-09-23T11:48:53.075Z,101064.38
2022-09-23T11:52:22.181Z,101053.34
2022-09-23T11:55:57.574Z,101056.75
2022-09-23T11:59:39.227Z,101056.50
2022-09-23T12:03:11.107Z,101050.78
2022-09-23T12:06:40.420Z,101056.81
2022-09-23T12:10:06.861Z,101056.28
2022-09-23T12:13:42.090Z,101041.56
2022-09-23T12:17:20.215Z,101051.75
2022-09-23T12:20:58.238Z,101046.56
2022-09-23T12:24:52.746Z,101048.13
2022-09-23T12:28:20.099Z,101046.78
2022-09-23T12:31:47.425Z,101045.84
2022-09-23T12:35:24.250Z,101040.94
2022-09-23T12:38:51.918Z,101035.91
2022-09-23T12:42:19.793Z,101032.56
2022-09-23T12:45:43.027Z,101033.41
2022-09-23T12:49:24.048Z,101034.94
2022-09-23T12:52:47.305Z,101035.94
2022-09-23T12:56:18.058Z,101035.16
2022-09-23T13:00:02.213Z,101031.75
2022-09-23T13:03:42.270Z,101033.03
2022-09-23T13:07:13.419Z,101035.72
2022-09-23T13:10:40.271Z,101029.78
2022-09-23T13:14:07.556Z,101016.41
2022-09-23T13:18:15.249Z,101029.91
2022-09-23T13:26:34.267Z,101010.56
2022-09-23T13:30:04.684Z,101012.53
2022-09-23T13:33:41.057Z,101011.38
2022-09-23T13:37:22.894Z,101013.75
2022-09-23T13:40:46.967Z,101012.03
2022-09-23T13:44:20.970Z,101007.88
2022-09-23T13:47:46.487Z,101014.38
2022-09-23T13:51:12.317Z,101017.41
2022-09-23T13:54:37.127Z,101010.78
2022-09-23T13:58:02.943Z,101017.03
2022-09-23T14:01:38.038Z,101004.06
2022-09-23T14:05:01.093Z,101014.78
2022-09-23T14:08:24.624Z,101013.25
2022-09-23T14:11:47.890Z,101000.28
2022-09-23T14:15:16.131Z,101008.94
2022-09-23T14:18:43.443Z,101010.69
2022-09-23T14:22:09.242Z,101006.59
2022-09-23T14:25:36.330Z,101005.16
2022-09-23T14:29:00.103Z,101010.63
2022-09-23T14:32:25.523Z,101006.53
2022-09-23T14:35:52.884Z,100993.88
2022-09-23T14:39:17.284Z,101004.38
2022-09-23T14:42:43.110Z,100995.94
2022-09-23T14:46:06.519Z,100989.22
2022-09-23T14:49:30.054Z,101002.28
2022-09-23T14:52:54.754Z,100997.94
2022-09-23T14:56:22.843Z,100999.97
2022-09-23T14:59:52.959Z,100995.63
2022-09-23T15:03:18.652Z,100999.31
2022-09-23T15:06:47.085Z,100995.34
2022-09-23T15:10:23.963Z,100980.16
2022-09-23T15:13:52.968Z,100993.88
2022-09-23T15:17:33.023Z,100996.03
2022-09-23T15:20:58.198Z,100994.69
2022-09-23T15:24:40.042Z,100994.19
2022-09-23T15:28:24.093Z,100998.88
2022-09-23T15:31:47.027Z,100994.81
2022-09-23T15:35:14.327Z,100997.81
2022-09-23T15:38:36.974Z,100996.53
2022-09-23T15:42:02.087Z,100996.94
2022-09-23T15:45:34.933Z,100991.38
2022-09-23T15:49:02.153Z,100987.56
2022-09-23T15:52:25.094Z,100995.13
2022-09-23T15:55:51.024Z,100994.63
2022-09-23T15:59:14.167Z,101004.72
2022-09-23T16:02:39.038Z,100999.13
2022-09-23T16:06:04.795Z,101002.25
2022-09-23T16:09:28.085Z,101008.00
2022-09-23T16:12:51.870Z,100999.06
2022-09-23T16:16:16.704Z,100994.41
2022-09-23T16:19:41.227Z,101004.38
2022-09-23T16:23:06.686Z,100991.88
2022-09-23T16:26:32.303Z,101001.03
2022-09-23T16:29:55.373Z,100995.53
2022-09-23T16:33:18.017Z,100984.81
2022-09-23T16:36:45.182Z,100998.44
2022-09-23T16:40:12.069Z,100988.69
2022-09-23T16:43:40.112Z,100989.19
2022-09-23T16:47:03.192Z,100991.31
2022-09-23T16:50:26.546Z,100995.31
2022-09-23T16:53:52.186Z,100993.09
2022-09-23T16:57:15.025Z,101003.09
2022-09-23T17:01:03.313Z,100997.31
2022-09-23T17:04:26.144Z,100999.38
2022-09-23T17:07:49.097Z,100991.00
2022-09-23T17:11:15.027Z,100986.09
2022-09-23T17:14:38.395Z,100990.50
2022-09-23T17:18:02.067Z,100993.34
2022-09-23T17:21:27.082Z,100985.72
2022-09-23T17:24:49.733Z,100981.69
2022-09-23T17:28:17.402Z,100981.97
2022-09-23T17:31:40.410Z,100984.81
2022-09-23T17:35:05.160Z,100961.97
2022-09-23T17:38:29.425Z,100985.22
2022-09-23T17:41:58.976Z,100992.34
2022-09-23T17:45:23.557Z,100994.25
2022-09-23T17:48:47.350Z,100991.06
2022-09-23T17:52:10.309Z,100992.25
2022-09-23T17:55:32.962Z,100990.59
2022-09-23T17:58:56.024Z,100991.69
2022-09-23T18:02:21.184Z,100997.13
2022-09-23T18:05:43.678Z,100994.72
2022-09-23T18:09:09.271Z,100996.56
2022-09-23T18:12:32.056Z,100990.69
2022-09-23T18:15:54.766Z,100998.63
2022-09-23T18:19:20.336Z,100999.66
2022-09-23T18:22:43.393Z,100988.66
2022-09-23T18:26:14.656Z,100993.94
2022-09-23T18:29:37.606Z,100986.38
2022-09-23T18:33:02.117Z,100993.41
2022-09-23T18:36:26.805Z,100985.81
2022-09-23T18:39:50.391Z,100988.34
2022-09-23T18:43:17.286Z,100988.44
2022-09-23T18:46:43.220Z,100990.28
2022-09-23T18:50:23.943Z,100986.13
2022-09-23T18:53:50.588Z,100982.03
2022-09-23T18:57:15.189Z,100980.53
2022-09-23T19:00:38.723Z,100984.97
2022-09-23T19:04:03.741Z,100970.50
2022-09-23T19:07:26.727Z,100969.81
2022-09-23T19:10:58.088Z,100985.44
2022-09-23T19:14:20.632Z,100986.44
2022-09-23T19:17:43.705Z,100971.91
2022-09-23T19:21:07.994Z,100978.91
2022-09-23T19:24:30.748Z,100978.22
2022-09-23T19:27:55.645Z,100978.34
2022-09-23T19:31:22.680Z,100976.72
2022-09-23T19:34:46.691Z,100975.03
2022-09-23T19:38:10.158Z,100983.78
2022-09-23T19:41:34.045Z,100977.91
2022-09-23T19:45:03.655Z,100974.50
2022-09-23T19:48:27.029Z,100976.31
2022-09-23T19:51:50.419Z,100967.75
2022-09-23T19:55:14.071Z,100974.72
2022-09-23T19:58:37.141Z,100972.19
2022-09-23T20:02:02.185Z,100968.84
2022-09-23T20:05:25.237Z,100974.06
2022-09-23T20:08:49.241Z,100982.00
2022-09-23T20:12:12.564Z,100979.47
2022-09-23T20:15:35.727Z,100982.19
2022-09-23T20:19:00.453Z,100984.75
2022-09-23T20:22:33.067Z,100977.03
2022-09-23T20:26:15.169Z,100981.41
2022-09-23T20:29:39.013Z,100981.50
2022-09-23T20:33:01.752Z,100975.59
2022-09-23T20:36:30.141Z,100972.22
2022-09-23T20:39:54.247Z,100979.22
2022-09-23T20:43:18.626Z,100981.06
2022-09-23T20:46:46.930Z,100987.19
2022-09-23T20:50:11.818Z,100982.97
2022-09-23T20:53:36.721Z,100985.56
2022-09-23T20:57:01.008Z,100976.97
2022-09-23T21:00:24.078Z,100989.09
2022-09-23T21:03:48.769Z,100986.56
2022-09-23T21:07:11.835Z,100993.53
2022-09-23T21:10:36.129Z,100985.81
2022-09-23T21:13:59.086Z,100983.28
2022-09-23T21:17:23.262Z,100986.75
2022-09-23T21:20:56.257Z,100985.09
2022-09-23T21:25:25.324Z,100988.59
2022-09-23T21:28:05.443Z,100977.44
2022-09-23T21:31:32.635Z,100981.81
2022-09-23T21:34:55.265Z,100985.31
2022-09-23T21:38:18.209Z,100975.84
2022-09-23T21:41:41.469Z,100981.06
2022-09-23T21:45:06.688Z,100977.72
2022-09-23T21:48:30.473Z,100972.56
2022-09-23T21:51:59.471Z,100980.31
2022-09-23T21:55:22.219Z,100974.34
2022-09-23T21:58:45.266Z,100970.94
2022-09-23T22:02:09.673Z,100988.25
2022-09-23T22:05:32.636Z,100982.28
2022-09-23T22:08:59.397Z,100981.53
2022-09-23T22:12:22.341Z,100976.44
2022-09-23T22:15:45.175Z,100980.75
2022-09-23T22:19:13.274Z,100979.94
2022-09-23T22:22:36.278Z,100982.59
2022-09-23T22:26:03.213Z,100979.16
2022-09-23T22:29:43.565Z,100978.34
2022-09-23T22:33:07.650Z,100974.13
2022-09-23T22:36:31.835Z,100975.88
2022-09-23T22:39:55.280Z,100967.31
2022-09-23T22:43:18.985Z,100965.59
2022-09-23T22:46:42.179Z,100965.66
2022-09-23T22:50:06.248Z,100968.28
2022-09-23T22:53:32.163Z,100971.75
2022-09-23T22:56:54.721Z,100973.47
2022-09-23T23:00:17.983Z,100970.09
2022-09-23T23:03:42.206Z,100968.34
2022-09-23T23:07:06.468Z,100967.50
2022-09-23T23:10:31.482Z,100963.22
2022-09-23T23:13:55.292Z,100961.56
2022-09-23T23:17:19.236Z,100953.03
2022-09-23T23:20:42.300Z,100962.50
2022-09-23T23:24:06.334Z,100960.00
2022-09-23T23:27:30.780Z,100964.31
2022-09-23T23:30:53.944Z,100966.94
2022-09-23T23:34:19.165Z,100967.81
2022-09-23T23:37:42.224Z,100960.94
2022-09-23T23:41:05.078Z,100969.59
2022-09-23T23:44:31.121Z,100963.59
2022-09-23T23:47:54.071Z,100963.66
2022-09-23T23:51:18.273Z,100963.75
2022-09-23T23:54:41.116Z,100963.81
2022-09-23T23:58:04.281Z,100956.94
